KHSP/HSP METAR and TAF weather

Enter ICAO airport designator
Station Type Date Time Source
KHSP METAR 2019/07/20 04:51 UTC NOAA

KHSP 200451Z AUTO 27012KT 10SM CLR 22/21 A3019 RMK AO2


Station Type Date Time Source
KHSP Decoded METAR 2019/07/20 04:51 UTC NOAA

Hot Springs / Ingalls, VA, United States (KHSP) 37-57N 079-50W
Jul 20, 2019 - 12:51 AM EDT / 2019.07.20 0451 UTC
Wind: from the W (270 degrees) at 14 MPH (12 KT):0
Visibility: 10 mile(s):0
Sky conditions: clear
Temperature: 71 F (22 C)
Dew Point: 69 F (21 C)
Relative Humidity: 94%
Pressure (altimeter): 30.19 in. Hg (1022 hPa)
ob: KHSP 200451Z AUTO 27012KT 10SM CLR 22/21 A3019 RMK AO2
cycle: 5

Station Type Date Time Source
KHSP TAF UTC NOAA

Error!

Example: see airport list